createdAt,value
2024-03-02T00:02:23.798Z,29.93
2024-03-02T00:05:16.114Z,31.10
2024-03-02T00:08:06.178Z,31.50
2024-03-02T00:10:58.015Z,28.23
2024-03-02T00:13:46.347Z,28.00
2024-03-02T00:16:33.737Z,30.80
2024-03-02T00:19:20.755Z,29.77
2024-03-02T00:22:08.964Z,29.33
2024-03-02T00:24:56.077Z,29.27
2024-03-02T00:27:43.259Z,26.70
2024-03-02T00:30:43.651Z,30.20
2024-03-02T00:33:36.870Z,27.00
2024-03-02T00:36:27.169Z,29.23
2024-03-02T00:39:16.381Z,28.37
2024-03-02T00:42:03.686Z,28.40
2024-03-02T00:44:50.946Z,30.80
2024-03-02T00:47:40.891Z,28.27
2024-03-02T00:50:31.078Z,27.80
2024-03-02T00:53:27.266Z,28.40
2024-03-02T00:56:14.494Z,30.10
2024-03-02T00:59:02.069Z,27.97
2024-03-02T01:01:50.365Z,28.60
2024-03-02T01:04:37.403Z,30.30
2024-03-02T01:07:24.719Z,30.37
2024-03-02T01:10:11.859Z,29.27
2024-03-02T01:12:58.967Z,30.60
2024-03-02T01:15:46.040Z,27.83
2024-03-02T01:18:33.187Z,26.20
2024-03-02T01:21:20.419Z,28.67
2024-03-02T01:24:07.516Z,30.13
2024-03-02T01:26:54.567Z,27.70
2024-03-02T01:29:41.632Z,28.50
2024-03-02T01:32:28.629Z,25.83
2024-03-02T01:35:16.161Z,26.67
2024-03-02T01:38:03.286Z,30.97
2024-03-02T01:40:50.364Z,24.90
2024-03-02T01:43:40.271Z,26.67
2024-03-02T01:46:28.898Z,25.83
2024-03-02T01:49:15.976Z,26.27
2024-03-02T01:52:03.281Z,27.77
2024-03-02T01:54:50.535Z,26.13
2024-03-02T01:57:37.892Z,26.97
2024-03-02T02:00:27.856Z,24.10
2024-03-02T02:03:15.357Z,26.80
2024-03-02T02:06:02.516Z,28.27
2024-03-02T02:08:49.546Z,25.20
2024-03-02T02:11:36.767Z,23.23
2024-03-02T02:14:23.772Z,26.70
2024-03-02T02:17:10.832Z,24.30
2024-03-02T02:19:57.849Z,25.83
2024-03-02T02:23:04.279Z,25.87
2024-03-02T02:25:51.318Z,27.97
2024-03-02T02:28:38.476Z,23.30
2024-03-02T02:31:25.541Z,25.13
2024-03-02T02:34:12.716Z,24.13
2024-03-02T02:37:00.088Z,23.87
2024-03-02T02:39:47.772Z,22.60
2024-03-02T02:42:34.887Z,24.83
2024-03-02T02:45:22.147Z,21.80
2024-03-02T02:48:09.423Z,23.83
2024-03-02T02:50:56.457Z,24.63
2024-03-02T02:53:43.586Z,25.20
2024-03-02T02:56:30.695Z,23.83
2024-03-02T02:59:17.720Z,22.53
2024-03-02T03:02:05.046Z,24.00
2024-03-02T03:04:52.128Z,22.70
2024-03-02T03:07:40.885Z,23.07
2024-03-02T03:10:28.739Z,26.87
2024-03-02T03:13:15.963Z,25.47
2024-03-02T03:16:03.159Z,22.87
2024-03-02T03:18:53.045Z,23.30
2024-03-02T03:21:40.192Z,24.77
2024-03-02T03:24:27.256Z,26.20
2024-03-02T03:27:14.586Z,25.77
2024-03-02T03:30:01.645Z,26.73
2024-03-02T03:32:51.315Z,29.77
2024-03-02T03:35:38.785Z,27.03
2024-03-02T03:38:25.795Z,24.13
2024-03-02T03:41:12.811Z,23.97
2024-03-02T03:43:59.870Z,25.80
2024-03-02T03:46:46.927Z,24.77
2024-03-02T03:49:33.949Z,26.30
2024-03-02T03:52:22.323Z,23.80
2024-03-02T03:55:09.751Z,23.83
2024-03-02T03:57:56.936Z,26.73
2024-03-02T04:00:44.066Z,24.40
2024-03-02T04:03:31.534Z,24.87
2024-03-02T04:06:18.693Z,24.97
2024-03-02T04:09:05.777Z,26.23
2024-03-02T04:11:52.950Z,27.23
2024-03-02T04:14:40.062Z,27.60
2024-03-02T04:17:27.219Z,24.37
2024-03-02T04:20:14.342Z,23.40
2024-03-02T04:23:01.368Z,23.03
2024-03-02T04:25:48.396Z,21.13
2024-03-02T04:28:35.465Z,22.47
2024-03-02T04:31:22.593Z,22.30
2024-03-02T04:34:10.104Z,22.10
2024-03-02T04:36:57.217Z,21.13
2024-03-02T04:39:44.410Z,22.60
2024-03-02T04:42:31.493Z,23.73
2024-03-02T04:45:18.603Z,22.27
2024-03-02T04:48:06.018Z,21.17
2024-03-02T04:50:53.087Z,23.53
2024-03-02T04:53:40.379Z,25.37
2024-03-02T04:56:33.390Z,22.67
2024-03-02T04:59:20.827Z,21.97
2024-03-02T05:02:07.858Z,25.50
2024-03-02T05:04:54.906Z,25.63
2024-03-02T05:07:43.345Z,22.07
2024-03-02T05:10:30.505Z,23.13
2024-03-02T05:13:18.670Z,21.07
2024-03-02T05:16:05.942Z,22.30
2024-03-02T05:18:53.072Z,22.53
2024-03-02T05:21:40.268Z,22.83
2024-03-02T05:24:30.154Z,23.77
2024-03-02T05:27:17.273Z,22.87
2024-03-02T05:30:07.409Z,23.90
2024-03-02T05:32:54.475Z,23.27
2024-03-02T05:35:41.487Z,22.53
2024-03-02T05:38:28.502Z,25.20
2024-03-02T05:41:15.518Z,22.07
2024-03-02T05:44:02.719Z,20.20
2024-03-02T05:46:49.797Z,20.80
2024-03-02T05:49:37.000Z,19.20
2024-03-02T05:52:24.023Z,23.03
2024-03-02T05:55:11.078Z,23.00
2024-03-02T05:58:23.603Z,22.73
2024-03-02T06:01:10.797Z,22.93
2024-03-02T06:03:58.350Z,26.93
2024-03-02T06:06:45.690Z,22.63
2024-03-02T06:09:32.761Z,23.63
2024-03-02T06:12:20.338Z,26.77
2024-03-02T06:15:07.863Z,22.43
2024-03-02T06:17:54.948Z,22.97
2024-03-02T06:20:42.054Z,24.47
2024-03-02T06:23:29.141Z,23.23
2024-03-02T06:26:16.378Z,23.83
2024-03-02T06:29:03.758Z,25.07
2024-03-02T06:31:53.339Z,22.87
2024-03-02T06:34:41.814Z,22.73
2024-03-02T06:37:28.843Z,25.23
2024-03-02T06:40:15.910Z,25.57
2024-03-02T06:43:02.989Z,21.33
2024-03-02T06:45:51.429Z,25.10
2024-03-02T06:48:38.540Z,21.60
2024-03-02T06:51:25.705Z,23.80
2024-03-02T06:54:12.790Z,21.97
2024-03-02T06:56:59.970Z,25.53
2024-03-02T06:59:47.029Z,23.60
2024-03-02T07:02:34.121Z,23.97
2024-03-02T07:05:22.197Z,23.70
2024-03-02T07:08:09.281Z,24.27
2024-03-02T07:10:56.312Z,23.10
2024-03-02T07:13:43.881Z,21.73
2024-03-02T07:16:34.076Z,22.33
2024-03-02T07:19:21.221Z,21.80
2024-03-02T07:22:09.274Z,22.77
2024-03-02T07:24:56.890Z,21.10
2024-03-02T07:27:45.141Z,19.27
2024-03-02T07:30:34.353Z,21.83
2024-03-02T07:33:22.726Z,20.63
2024-03-02T07:36:09.978Z,19.53
2024-03-02T07:38:57.606Z,20.00
2024-03-02T07:41:46.811Z,19.90
2024-03-02T07:44:34.153Z,19.67
2024-03-02T07:47:21.328Z,18.50
2024-03-02T07:50:08.726Z,18.00
2024-03-02T07:52:55.765Z,20.17
2024-03-02T07:55:43.194Z,18.30
2024-03-02T07:58:32.145Z,18.43
2024-03-02T08:01:19.682Z,19.13
2024-03-02T08:04:07.692Z,20.60
2024-03-02T08:06:55.908Z,22.93
2024-03-02T08:09:43.071Z,20.83
2024-03-02T08:12:30.165Z,24.73
2024-03-02T08:15:17.243Z,23.77
2024-03-02T08:18:04.566Z,24.70
2024-03-02T08:20:51.799Z,24.87
2024-03-02T08:23:41.340Z,27.60
2024-03-02T08:26:30.851Z,27.60
2024-03-02T08:29:18.402Z,28.70
2024-03-02T08:32:06.972Z,31.83
2024-03-02T08:34:54.162Z,25.97
2024-03-02T08:37:42.965Z,27.87
2024-03-02T08:40:30.291Z,27.73
2024-03-02T08:43:17.443Z,27.67
2024-03-02T08:46:04.656Z,26.13
2024-03-02T08:48:51.838Z,23.87
2024-03-02T08:51:39.082Z,25.67
2024-03-02T08:54:26.712Z,24.33
2024-03-02T08:57:13.832Z,24.57
2024-03-02T09:00:01.226Z,23.27
2024-03-02T09:02:48.517Z,24.23
2024-03-02T09:05:35.996Z,25.27
2024-03-02T09:08:23.556Z,29.13
2024-03-02T09:11:11.712Z,29.57
2024-03-02T09:13:58.962Z,30.63
2024-03-02T09:16:46.028Z,31.27
2024-03-02T09:19:33.469Z,30.07
2024-03-02T09:22:20.924Z,31.77
2024-03-02T09:25:09.774Z,35.00
2024-03-02T09:27:56.834Z,28.97
2024-03-02T09:30:43.914Z,32.27
2024-03-02T09:33:31.138Z,30.23
2024-03-02T09:36:23.365Z,30.80
2024-03-02T09:39:11.186Z,30.43
2024-03-02T09:42:00.434Z,28.73
2024-03-02T09:44:48.980Z,27.10
2024-03-02T09:47:36.201Z,25.80
2024-03-02T09:50:23.447Z,27.00
2024-03-02T09:53:12.881Z,23.27
2024-03-02T09:56:00.831Z,25.43
2024-03-02T09:58:48.373Z,24.87
2024-03-02T10:01:36.248Z,26.97
2024-03-02T10:04:25.132Z,23.37
2024-03-02T10:07:16.948Z,23.87
2024-03-02T10:10:17.089Z,23.33
2024-03-02T10:13:08.801Z,21.17
2024-03-02T10:15:56.088Z,23.10
2024-03-02T10:18:43.299Z,23.93
2024-03-02T10:21:30.365Z,24.77
2024-03-02T10:24:21.058Z,23.70
2024-03-02T10:27:16.422Z,24.70
2024-03-02T10:30:04.259Z,25.00
2024-03-02T10:32:51.328Z,21.77
2024-03-02T10:35:40.187Z,22.53
2024-03-02T10:38:27.324Z,22.03
2024-03-02T10:41:19.425Z,20.63
2024-03-02T10:44:10.715Z,23.43
2024-03-02T10:47:00.480Z,23.53
2024-03-02T10:49:49.224Z,22.17
2024-03-02T10:52:37.042Z,24.40
2024-03-02T10:55:24.418Z,25.30
2024-03-02T10:58:13.476Z,22.50
2024-03-02T11:01:04.845Z,24.33
2024-03-02T11:03:52.777Z,22.47
2024-03-02T11:06:46.107Z,21.40
2024-03-02T11:09:46.079Z,22.77
2024-03-02T11:12:40.006Z,20.73
2024-03-02T11:15:28.746Z,20.20
2024-03-02T11:18:18.413Z,20.73
2024-03-02T11:21:06.219Z,20.63
2024-03-02T11:23:53.310Z,23.03
2024-03-02T11:26:41.211Z,22.97
2024-03-02T11:29:37.724Z,21.90
2024-03-02T11:32:25.224Z,21.20
2024-03-02T11:35:12.517Z,21.60
2024-03-02T11:38:00.103Z,22.43
2024-03-02T11:40:47.871Z,23.10
2024-03-02T11:43:38.605Z,22.90
2024-03-02T11:46:27.200Z,21.50
2024-03-02T11:49:37.188Z,23.07
2024-03-02T11:52:24.948Z,22.97
2024-03-02T11:55:13.759Z,21.47
2024-03-02T11:58:03.303Z,25.20
2024-03-02T12:00:57.652Z,25.10
2024-03-02T12:03:45.289Z,25.67
2024-03-02T12:06:32.511Z,24.07
2024-03-02T12:09:19.646Z,20.10
2024-03-02T12:12:08.617Z,20.80
2024-03-02T12:14:56.739Z,23.50
2024-03-02T12:17:43.813Z,22.07
2024-03-02T12:20:33.349Z,19.70
2024-03-02T12:23:21.028Z,21.77
2024-03-02T12:26:08.380Z,21.97
2024-03-02T12:28:55.727Z,25.93
2024-03-02T12:31:48.381Z,21.93
2024-03-02T12:34:35.634Z,19.73
2024-03-02T12:37:22.747Z,24.30
2024-03-02T12:40:12.519Z,24.00
2024-03-02T12:43:00.017Z,22.77
2024-03-02T12:45:47.935Z,23.97
2024-03-02T12:48:36.696Z,23.20
2024-03-02T12:51:23.992Z,26.50
2024-03-02T12:54:11.898Z,21.50
2024-03-02T12:56:58.961Z,25.10
2024-03-02T12:59:49.200Z,25.00
2024-03-02T13:02:37.737Z,23.77
2024-03-02T13:05:27.191Z,22.00
2024-03-02T13:08:14.219Z,21.10
2024-03-02T13:11:01.300Z,24.37
2024-03-02T13:13:48.426Z,22.80
2024-03-02T13:16:47.838Z,24.30
2024-03-02T13:19:35.769Z,23.57
2024-03-02T13:22:23.313Z,23.23
2024-03-02T13:25:12.467Z,21.40
2024-03-02T13:28:00.643Z,22.67
2024-03-02T13:30:47.712Z,19.80
2024-03-02T13:33:34.860Z,21.67
2024-03-02T13:36:21.954Z,24.43
2024-03-02T13:39:11.825Z,20.87
2024-03-02T13:42:04.578Z,24.33
2024-03-02T13:44:52.560Z,21.47
2024-03-02T13:47:39.788Z,19.83
2024-03-02T13:50:26.828Z,21.33
2024-03-02T13:53:13.885Z,19.77
2024-03-02T13:56:00.980Z,21.63
2024-03-02T13:58:48.151Z,19.03
2024-03-02T14:01:35.552Z,20.30
2024-03-02T14:04:22.805Z,19.93
2024-03-02T14:07:10.270Z,20.23
2024-03-02T14:09:58.226Z,25.17
2024-03-02T14:12:45.533Z,18.40
2024-03-02T14:15:32.771Z,21.93
2024-03-02T14:18:21.160Z,21.57
2024-03-02T14:21:08.974Z,22.03
2024-03-02T14:23:56.604Z,20.63
2024-03-02T14:26:43.634Z,22.03
2024-03-02T14:29:30.935Z,23.77
2024-03-02T14:32:17.971Z,25.10
2024-03-02T14:35:05.640Z,22.27
2024-03-02T14:37:53.967Z,21.20
2024-03-02T14:40:41.014Z,21.10
2024-03-02T14:43:28.041Z,21.37
2024-03-02T14:46:15.163Z,21.70
2024-03-02T14:49:02.377Z,19.13
2024-03-02T14:51:50.645Z,16.37
2024-03-02T14:54:39.152Z,18.13
2024-03-02T14:57:26.374Z,17.50
2024-03-02T15:00:13.679Z,18.80
2024-03-02T15:03:00.858Z,19.83
2024-03-02T15:05:49.054Z,20.20
2024-03-02T15:08:36.144Z,19.27
2024-03-02T15:11:23.920Z,20.00
2024-03-02T15:14:11.266Z,19.10
2024-03-02T15:16:59.449Z,16.90
2024-03-02T15:19:46.989Z,18.80
2024-03-02T15:22:34.090Z,17.43
2024-03-02T15:25:21.229Z,16.67
2024-03-02T15:28:08.584Z,18.17
2024-03-02T15:30:57.140Z,17.23
2024-03-02T15:33:44.402Z,16.33
2024-03-02T15:36:32.613Z,17.77
2024-03-02T15:39:19.637Z,17.27
2024-03-02T15:42:07.089Z,16.33
2024-03-02T15:44:54.730Z,15.60
2024-03-02T15:47:42.421Z,15.07
2024-03-02T15:50:29.522Z,18.93
2024-03-02T15:53:16.783Z,17.70
2024-03-02T15:56:07.125Z,15.67
2024-03-02T15:58:56.538Z,19.33
2024-03-02T16:01:44.644Z,15.50
2024-03-02T16:04:31.973Z,15.20
2024-03-02T16:07:19.201Z,17.00
2024-03-02T16:10:08.878Z,15.97
2024-03-02T16:13:00.692Z,16.83
2024-03-02T16:15:47.839Z,16.60
2024-03-02T16:18:35.409Z,15.23
2024-03-02T16:21:26.248Z,14.40
2024-03-02T16:24:13.706Z,14.80
2024-03-02T16:27:00.717Z,12.87
2024-03-02T16:29:48.722Z,14.43
2024-03-02T16:32:36.315Z,12.47
2024-03-02T16:35:23.384Z,12.83
2024-03-02T16:38:11.509Z,13.20
2024-03-02T16:40:58.678Z,13.43
2024-03-02T16:43:46.755Z,12.80
2024-03-02T16:46:33.818Z,13.13
2024-03-02T16:49:21.139Z,15.07
2024-03-02T16:52:08.347Z,12.77
2024-03-02T16:54:55.649Z,14.57
2024-03-02T16:57:42.869Z,13.43
2024-03-02T17:00:29.954Z,12.57
2024-03-02T17:03:17.428Z,12.73
2024-03-02T17:06:04.864Z,12.93
2024-03-02T17:08:51.863Z,16.50
2024-03-02T17:11:38.955Z,18.60
2024-03-02T17:14:26.189Z,16.63
2024-03-02T17:17:15.360Z,15.77
2024-03-02T17:20:03.298Z,15.67
2024-03-02T17:22:50.387Z,15.57
2024-03-02T17:25:37.966Z,17.37
2024-03-02T17:28:28.778Z,16.73
2024-03-02T17:31:17.555Z,15.43
2024-03-02T17:34:04.666Z,15.93
2024-03-02T17:36:51.981Z,14.67
2024-03-02T17:39:39.189Z,15.77
2024-03-02T17:42:27.073Z,17.53
2024-03-02T17:45:14.235Z,14.77
2024-03-02T17:48:01.405Z,15.20
2024-03-02T17:50:49.774Z,17.47
2024-03-02T17:53:37.228Z,16.37
2024-03-02T17:56:24.489Z,14.00
2024-03-02T17:59:11.578Z,13.57
2024-03-02T18:01:59.043Z,14.03
2024-03-02T18:04:46.347Z,13.90
2024-03-02T18:07:35.823Z,13.80
2024-03-02T18:10:22.881Z,12.43
2024-03-02T18:13:10.088Z,12.80
2024-03-02T18:15:57.218Z,12.63
2024-03-02T18:18:44.522Z,12.97
2024-03-02T18:21:31.639Z,12.70
2024-03-02T18:24:19.536Z,15.43
2024-03-02T18:27:06.733Z,13.80
2024-03-02T18:29:54.893Z,14.03
2024-03-02T18:32:43.219Z,14.80
2024-03-02T18:35:30.927Z,15.17
2024-03-02T18:38:18.116Z,14.07
2024-03-02T18:41:05.138Z,15.63
2024-03-02T18:43:52.193Z,14.37
2024-03-02T18:46:39.265Z,16.93
2024-03-02T18:49:26.521Z,20.20
2024-03-02T18:52:14.331Z,17.60
2024-03-02T18:55:03.789Z,18.83
2024-03-02T18:57:50.927Z,16.43
2024-03-02T19:00:38.220Z,15.70
2024-03-02T19:03:25.518Z,14.57
2024-03-02T19:06:16.061Z,15.07
2024-03-02T19:09:03.210Z,16.13
2024-03-02T19:11:50.218Z,14.47
2024-03-02T19:14:37.978Z,14.87
2024-03-02T19:17:25.052Z,16.53
2024-03-02T19:20:12.800Z,13.27
2024-03-02T19:23:00.048Z,14.10
2024-03-02T19:25:47.103Z,12.60
2024-03-02T19:28:34.134Z,13.93
2024-03-02T19:31:21.246Z,12.63
2024-03-02T19:34:08.354Z,14.00
2024-03-02T19:37:00.945Z,13.23
2024-03-02T19:39:48.124Z,15.27
2024-03-02T19:42:38.088Z,15.17
2024-03-02T19:45:25.202Z,15.53
2024-03-02T19:48:12.610Z,14.53
2024-03-02T19:50:59.659Z,14.70
2024-03-02T19:53:46.714Z,13.87
2024-03-02T19:56:35.778Z,13.50
2024-03-02T19:59:23.139Z,13.37
2024-03-02T20:02:15.174Z,13.87
2024-03-02T20:05:05.283Z,14.17
2024-03-02T20:07:52.529Z,13.03
2024-03-02T20:10:39.595Z,12.53
2024-03-02T20:13:26.687Z,12.20
2024-03-02T20:16:13.842Z,12.37
2024-03-02T20:19:01.038Z,14.23
2024-03-02T20:21:48.165Z,13.00
2024-03-02T20:24:35.238Z,14.10
2024-03-02T20:27:22.660Z,14.37
2024-03-02T20:30:10.909Z,13.73
2024-03-02T20:32:57.934Z,12.83
2024-03-02T20:35:45.047Z,12.13
2024-03-02T20:38:32.061Z,12.60
2024-03-02T20:41:20.108Z,13.23
2024-03-02T20:44:07.278Z,13.37
2024-03-02T20:46:54.546Z,14.57
2024-03-02T20:49:44.272Z,15.37
2024-03-02T20:52:31.461Z,17.63
2024-03-02T20:55:18.846Z,16.00
2024-03-02T20:58:06.013Z,14.90
2024-03-02T21:00:53.078Z,14.57
2024-03-02T21:03:41.648Z,15.30
2024-03-02T21:06:28.780Z,14.77
2024-03-02T21:09:15.841Z,18.60
2024-03-02T21:12:06.095Z,15.63
2024-03-02T21:14:53.104Z,13.97
2024-03-02T21:17:40.228Z,15.43
2024-03-02T21:20:27.340Z,14.17
2024-03-02T21:23:16.066Z,13.83
2024-03-02T21:26:04.654Z,15.73
2024-03-02T21:28:51.751Z,14.90
2024-03-02T21:31:38.958Z,15.80
2024-03-02T21:34:26.002Z,16.30
2024-03-02T21:37:13.145Z,15.77
2024-03-02T21:40:00.590Z,16.17
2024-03-02T21:42:48.074Z,15.00
2024-03-02T21:45:35.156Z,14.57
2024-03-02T21:48:23.295Z,14.70
2024-03-02T21:51:16.453Z,14.37
2024-03-02T21:54:03.611Z,14.80
2024-03-02T21:56:52.538Z,14.70
2024-03-02T21:59:40.381Z,16.17
2024-03-02T22:02:27.473Z,16.83
2024-03-02T22:05:14.600Z,16.83
2024-03-02T22:08:01.614Z,15.13
2024-03-02T22:10:48.731Z,15.53
2024-03-02T22:13:37.417Z,15.63
2024-03-02T22:16:26.819Z,13.37
2024-03-02T22:19:14.016Z,17.00
2024-03-02T22:22:01.428Z,17.37
2024-03-02T22:24:48.540Z,16.63
2024-03-02T22:27:39.720Z,17.03
2024-03-02T22:30:28.877Z,17.67
2024-03-02T22:33:15.951Z,15.77
2024-03-02T22:36:03.145Z,16.73
2024-03-02T22:38:50.300Z,16.20
2024-03-02T22:41:37.335Z,15.50
2024-03-02T22:44:24.348Z,15.30
2024-03-02T22:47:12.990Z,16.97
2024-03-02T22:50:00.033Z,18.93
2024-03-02T22:52:47.071Z,20.20
2024-03-02T22:55:34.283Z,16.07
2024-03-02T22:58:21.412Z,16.13
2024-03-02T23:01:11.077Z,17.57
2024-03-02T23:03:58.242Z,17.43
2024-03-02T23:06:45.339Z,16.83
2024-03-02T23:09:32.504Z,18.80
2024-03-02T23:12:19.525Z,18.27
2024-03-02T23:15:08.259Z,17.00
2024-03-02T23:17:55.976Z,16.57
2024-03-02T23:20:43.665Z,16.37
2024-03-02T23:23:30.758Z,16.83
2024-03-02T23:26:17.840Z,18.13
2024-03-02T23:29:04.870Z,15.57
2024-03-02T23:31:51.925Z,16.53
2024-03-02T23:34:39.786Z,18.33
2024-03-02T23:37:28.920Z,18.77
2024-03-02T23:40:18.812Z,18.13
2024-03-02T23:43:06.252Z,17.23
2024-03-02T23:45:53.749Z,18.27
2024-03-02T23:48:40.926Z,18.47
2024-03-02T23:51:27.950Z,16.87
2024-03-02T23:54:14.965Z,16.00
2024-03-02T23:57:01.992Z,18.17
2024-03-02T23:59:49.050Z,17.60
